Terminal Aerodrome Forecast
Issued by NWS Charleston, WV

Current Version | Previous Version | Graphics & Text | Print | Product List | Glossary On
Versions: 1 2 3 4 5 6 7 8 9 10 11 12 13 14 15 16 17 18 19 20
000
FTUS41 KRLX 180200 AAA
TAFHTS
TAF AMD
KHTS 180214Z 1802/1824 VRB03KT 6SM BR SCT045
     FM180500 00000KT 4SM BR SCT090
     FM180700 00000KT 2SM BR SCT001 BKN080
     FM180800 00000KT 1/2SM FG SCT001
      TEMPO 1808/1809 2SM BR BKN070
     FM181400 VRB03KT 5SM BR SKC
     FM181600 03004KT P6SM SCT030=

USA.gov is the U.S. government's official web portal to all federal, state and local government web resources and services.